METAR Data
IDs: Format: Raw Decoded Include TAF

Data at: 0837 UTC 18 Sep 2021

ZYTL 180830Z 31003MPS 9999 SCT033 24/16 Q1015 NOSIG